< < Back
Terminal Aerodrome Forecast


Current Version              Previous Versions:   1  2  3  4  5  6  7  8  9  

Terminal Aerodrome Forecast

632
FTUS42 KGSP 260840 AAA
TAFHKY
TAF AMD
KHKY 260840Z 2609/2706 21003KT P6SM FEW025 BKN110
      TEMPO 2612/2614 VRB03KT 4SM -RA SCT010 BKN025
     FM261400 29004KT P6SM BKN025
     FM261700 30008G15KT P6SM BKN040
     FM262000 31012G20KT P6SM BKN060
     FM270000 31010KT P6SM SCT100=

Latest METAR

771
SAUS70 KWBC 261800 RRJ
MTRHKY
METAR KHKY 261753Z VRB04KT 10SM FEW030 BKN044 OVC100 09/03 A2962 RMK AO2
SLP020 60002 T00940028 10094 20017 58009


USA.gov is the U.S. government's official web portal to all federal, state and local government web resources and services.